createdAt,value
2023-02-08T00:00:55.181Z,19.90
2023-02-08T00:03:22.276Z,19.05
2023-02-08T00:05:49.218Z,20.55
2023-02-08T00:08:16.609Z,18.52
2023-02-08T00:10:44.098Z,19.25
2023-02-08T00:13:11.163Z,19.13
2023-02-08T00:15:45.722Z,19.70
2023-02-08T00:18:13.663Z,19.80
2023-02-08T00:20:42.668Z,18.50
2023-02-08T00:23:10.333Z,18.92
2023-02-08T00:25:37.437Z,20.35
2023-02-08T00:28:05.213Z,20.33
2023-02-08T00:30:33.472Z,18.65
2023-02-08T00:33:01.334Z,20.65
2023-02-08T00:35:29.080Z,18.50
2023-02-08T00:37:56.606Z,20.08
2023-02-08T00:40:24.049Z,20.52
2023-02-08T00:42:51.058Z,19.77
2023-02-08T00:45:17.970Z,21.15
2023-02-08T00:47:44.837Z,19.90
2023-02-08T00:50:12.002Z,19.33
2023-02-08T00:52:38.984Z,20.42
2023-02-08T00:55:06.915Z,18.95
2023-02-08T00:57:34.350Z,20.02
2023-02-08T01:00:01.241Z,18.23
2023-02-08T01:02:29.139Z,18.05
2023-02-08T01:04:56.231Z,18.85
2023-02-08T01:07:23.277Z,17.45
2023-02-08T01:09:50.218Z,19.00
2023-02-08T01:12:17.191Z,19.15
2023-02-08T01:14:44.158Z,17.58
2023-02-08T01:17:11.077Z,20.05
2023-02-08T01:19:38.000Z,18.58
2023-02-08T01:22:04.864Z,19.70
2023-02-08T01:24:32.527Z,20.40
2023-02-08T01:27:00.256Z,20.13
2023-02-08T01:29:27.787Z,19.45
2023-02-08T01:31:55.168Z,17.25
2023-02-08T01:34:22.548Z,19.67
2023-02-08T01:36:49.931Z,19.13
2023-02-08T01:39:16.819Z,19.05
2023-02-08T01:41:46.674Z,18.75
2023-02-08T01:44:14.855Z,17.55
2023-02-08T01:46:47.435Z,19.70
2023-02-08T01:49:34.803Z,18.20
2023-02-08T01:52:10.719Z,19.13
2023-02-08T01:54:42.152Z,18.75
2023-02-08T01:57:09.328Z,18.58
2023-02-08T01:59:54.197Z,16.40
2023-02-08T02:02:23.809Z,16.98
2023-02-08T02:04:52.309Z,17.20
2023-02-08T02:07:21.308Z,17.15
2023-02-08T02:09:56.097Z,16.80
2023-02-08T02:12:23.957Z,16.65
2023-02-08T02:14:51.235Z,16.00
2023-02-08T02:17:19.861Z,17.13
2023-02-08T02:20:07.775Z,17.60
2023-02-08T02:23:01.044Z,16.40
2023-02-08T02:25:49.340Z,17.33
2023-02-08T02:28:28.521Z,15.63
2023-02-08T02:31:28.989Z,16.40
2023-02-08T02:34:08.347Z,17.38
2023-02-08T02:37:03.013Z,17.67
2023-02-08T02:39:53.440Z,15.82
2023-02-08T02:42:38.869Z,16.10
2023-02-08T02:45:32.662Z,14.95
2023-02-08T02:48:13.002Z,16.02
2023-02-08T02:50:51.410Z,15.98
2023-02-08T02:53:20.628Z,16.55
2023-02-08T02:55:53.416Z,16.47
2023-02-08T02:58:23.062Z,16.08
2023-02-08T03:00:55.246Z,16.90
2023-02-08T03:03:31.306Z,17.05
2023-02-08T03:06:03.359Z,16.65
2023-02-08T03:08:52.186Z,16.05
2023-02-08T03:11:27.829Z,16.52
2023-02-08T03:14:23.743Z,18.15
2023-02-08T03:17:04.250Z,15.60
2023-02-08T03:19:32.141Z,18.05
2023-02-08T03:22:13.397Z,18.65
2023-02-08T03:24:51.960Z,17.23
2023-02-08T03:27:38.915Z,17.55
2023-02-08T03:30:22.113Z,18.15
2023-02-08T03:33:15.840Z,19.98
2023-02-08T03:35:50.866Z,17.52
2023-02-08T03:38:35.100Z,19.70
2023-02-08T03:41:04.908Z,19.42
2023-02-08T03:43:40.337Z,18.83
2023-02-08T03:46:26.855Z,21.25
2023-02-08T03:48:58.949Z,19.23
2023-02-08T03:51:28.074Z,20.55
2023-02-08T03:53:56.656Z,21.17
2023-02-08T03:56:35.500Z,21.23
2023-02-08T03:59:07.287Z,22.08
2023-02-08T04:01:46.239Z,21.85
2023-02-08T04:04:15.311Z,20.73
2023-02-08T04:06:42.616Z,21.52
2023-02-08T04:09:09.512Z,20.05
2023-02-08T04:11:36.465Z,20.05
2023-02-08T04:14:03.286Z,19.65
2023-02-08T04:16:30.128Z,18.67
2023-02-08T04:18:56.941Z,19.58
2023-02-08T04:21:23.902Z,19.08
2023-02-08T04:23:51.191Z,19.13
2023-02-08T04:26:18.096Z,19.08
2023-02-08T04:28:45.009Z,19.60
2023-02-08T04:31:11.957Z,21.88
2023-02-08T04:33:38.844Z,20.42
2023-02-08T04:36:06.043Z,21.00
2023-02-08T04:38:32.987Z,21.58
2023-02-08T04:40:59.923Z,20.00
2023-02-08T04:43:26.786Z,19.65
2023-02-08T04:45:53.646Z,18.70
2023-02-08T04:48:21.001Z,19.40
2023-02-08T04:50:48.176Z,19.52
2023-02-08T04:53:15.116Z,19.95
2023-02-08T04:55:42.568Z,19.75
2023-02-08T04:58:09.401Z,18.92
2023-02-08T05:00:36.226Z,19.33
2023-02-08T05:03:03.115Z,18.35
2023-02-08T05:05:30.434Z,20.80
2023-02-08T05:07:57.348Z,17.23
2023-02-08T05:10:24.631Z,18.27
2023-02-08T05:12:51.694Z,20.08
2023-02-08T05:15:18.689Z,20.15
2023-02-08T05:17:45.604Z,19.48
2023-02-08T05:20:13.399Z,19.23
2023-02-08T05:22:40.957Z,19.08
2023-02-08T05:25:08.322Z,20.02
2023-02-08T05:27:36.104Z,20.77
2023-02-08T10:01:34.293Z,18.08
2023-02-08T10:06:29.906Z,18.40
2023-02-08T10:09:02.484Z,17.50
2023-02-08T10:11:44.987Z,19.30
2023-02-08T10:14:30.637Z,19.60
2023-02-08T10:17:22.382Z,18.33
2023-02-08T10:20:26.465Z,18.15
2023-02-08T10:23:25.098Z,18.77
2023-02-08T10:26:03.549Z,19.13
2023-02-08T10:28:58.025Z,19.20
2023-02-08T10:31:48.616Z,20.80
2023-02-08T10:34:34.883Z,19.48
2023-02-08T10:37:13.186Z,20.85
2023-02-08T10:39:40.924Z,19.80
2023-02-08T10:42:20.344Z,20.80
2023-02-08T10:44:56.362Z,19.67
2023-02-08T10:47:39.913Z,20.73
2023-02-08T10:50:30.125Z,24.27
2023-02-08T10:52:57.314Z,22.17
2023-02-08T10:55:24.720Z,23.40
2023-02-08T10:57:55.738Z,22.30
2023-02-08T11:00:27.230Z,23.23
2023-02-08T11:02:57.313Z,22.25
2023-02-08T11:05:34.822Z,24.40
2023-02-08T11:08:09.703Z,22.52
2023-02-08T11:10:39.068Z,22.58
2023-02-08T11:13:18.900Z,24.13
2023-02-08T11:15:56.044Z,23.00
2023-02-08T11:18:36.471Z,24.13
2023-02-08T11:21:08.244Z,21.73
2023-02-08T11:23:41.516Z,23.08
2023-02-08T11:26:19.569Z,23.83
2023-02-08T11:29:04.037Z,21.20
2023-02-08T11:31:32.230Z,22.08
2023-02-08T11:34:04.878Z,22.40
2023-02-08T11:36:34.411Z,22.02
2023-02-08T11:39:03.881Z,23.13
2023-02-08T11:41:31.086Z,22.53
2023-02-08T11:44:06.854Z,21.48
2023-02-08T11:46:37.144Z,22.50
2023-02-08T11:51:36.728Z,19.90
2023-02-08T11:54:05.725Z,22.38
2023-02-08T11:56:34.503Z,21.65
2023-02-08T11:59:12.496Z,20.02
2023-02-08T12:01:42.016Z,21.85
2023-02-08T12:04:12.554Z,21.98
2023-02-08T12:07:09.478Z,19.48
2023-02-08T12:09:58.333Z,18.77
2023-02-08T12:12:46.266Z,18.63
2023-02-08T12:15:16.115Z,17.05
2023-02-08T12:17:54.224Z,15.27
2023-02-08T12:20:38.604Z,16.58
2023-02-08T12:23:36.416Z,16.05
2023-02-08T12:26:16.815Z,15.52
2023-02-08T12:29:02.249Z,13.75
2023-02-08T12:31:53.873Z,12.57
2023-02-08T12:34:48.221Z,13.05
2023-02-08T12:37:58.597Z,13.57
2023-02-08T12:43:34.935Z,12.23
2023-02-08T12:46:15.993Z,10.82
2023-02-08T12:49:01.011Z,12.32
2023-02-08T12:51:49.531Z,12.00
2023-02-08T12:54:55.720Z,11.07
2023-02-08T12:57:25.491Z,11.07
2023-02-08T13:00:03.448Z,12.73
2023-02-08T13:02:44.548Z,11.73
2023-02-08T13:05:19.064Z,12.23
2023-02-08T13:07:50.481Z,10.65
2023-02-08T13:10:33.231Z,9.40
2023-02-08T13:13:18.500Z,9.20
2023-02-08T13:16:00.647Z,8.27
2023-02-08T13:18:42.148Z,8.30
2023-02-08T13:21:16.697Z,8.07
2023-02-08T13:23:52.817Z,8.57
2023-02-08T13:26:27.980Z,8.00
2023-02-08T13:28:59.432Z,8.20
2023-02-08T13:31:44.219Z,8.80
2023-02-08T13:34:33.455Z,9.43
2023-02-08T13:37:08.862Z,9.40
2023-02-08T13:39:46.465Z,8.52
2023-02-08T13:42:42.884Z,9.75
2023-02-08T13:45:22.610Z,10.00
2023-02-08T13:47:56.102Z,9.50
2023-02-08T13:50:34.966Z,10.40
2023-02-08T13:53:03.071Z,11.15
2023-02-08T13:55:33.811Z,11.38
2023-02-08T13:58:01.817Z,10.63
2023-02-08T14:00:34.675Z,10.13
2023-02-08T14:03:27.356Z,10.02
2023-02-08T14:06:05.530Z,10.60
2023-02-08T14:08:48.172Z,10.45
2023-02-08T14:11:34.058Z,9.95
2023-02-08T14:14:06.358Z,10.10
2023-02-08T14:16:41.887Z,10.45
2023-02-08T14:19:20.711Z,10.60
2023-02-08T14:22:06.055Z,10.40
2023-02-08T14:24:38.987Z,10.27
2023-02-08T14:27:17.455Z,10.35
2023-02-08T14:29:44.448Z,10.15
2023-02-08T14:32:24.027Z,10.57
2023-02-08T14:35:20.767Z,11.57
2023-02-08T14:37:50.747Z,10.02
2023-02-08T14:40:24.692Z,10.93
2023-02-08T14:42:58.174Z,10.95
2023-02-08T14:45:32.428Z,11.02
2023-02-08T14:48:25.306Z,9.75
2023-02-08T14:51:10.580Z,10.48
2023-02-08T14:53:52.151Z,11.27
2023-02-08T14:56:29.957Z,11.35
2023-02-08T14:59:06.245Z,12.25
2023-02-08T15:01:45.056Z,11.57
2023-02-08T15:04:13.976Z,11.52
2023-02-08T15:06:50.451Z,13.07
2023-02-08T15:09:26.796Z,12.35
2023-02-08T15:12:00.757Z,13.27
2023-02-08T15:14:29.060Z,11.27
2023-02-08T15:16:56.870Z,11.00
2023-02-08T15:19:28.395Z,10.27
2023-02-08T15:21:56.756Z,10.65
2023-02-08T15:24:29.137Z,11.13
2023-02-08T15:26:57.781Z,11.52
2023-02-08T15:29:42.799Z,12.43
2023-02-08T15:32:16.429Z,11.50
2023-02-08T15:34:45.509Z,12.07
2023-02-08T15:37:19.821Z,10.95
2023-02-08T15:39:54.043Z,10.48
2023-02-08T15:42:27.704Z,10.90
2023-02-08T15:44:55.888Z,10.48
2023-02-08T15:47:31.732Z,10.25
2023-02-08T15:49:59.473Z,10.48
2023-02-08T15:52:29.472Z,11.40
2023-02-08T15:54:56.885Z,10.43
2023-02-08T15:57:46.656Z,9.60
2023-02-08T16:00:18.996Z,10.35
2023-02-08T16:02:55.976Z,10.60
2023-02-08T16:05:26.264Z,9.88
2023-02-08T16:10:33.643Z,11.05
2023-02-08T16:15:42.393Z,11.30
2023-02-08T16:18:41.229Z,10.13
2023-02-08T16:21:26.646Z,9.98
2023-02-08T16:24:01.218Z,12.13
2023-02-08T16:26:37.330Z,13.73
2023-02-08T16:29:17.509Z,12.85
2023-02-08T16:31:47.381Z,12.38
2023-02-08T16:34:17.687Z,11.80
2023-02-08T16:36:50.741Z,13.52
2023-02-08T16:39:17.523Z,13.48
2023-02-08T16:42:00.975Z,14.95
2023-02-08T16:44:36.917Z,14.75
2023-02-08T16:47:25.643Z,14.40
2023-02-08T16:49:52.501Z,15.52
2023-02-08T16:52:19.435Z,17.42
2023-02-08T16:54:46.311Z,17.45
2023-02-08T16:57:13.210Z,16.90
2023-02-08T16:59:40.221Z,18.90
2023-02-08T17:02:12.498Z,17.15
2023-02-08T17:04:39.801Z,17.83
2023-02-08T17:07:10.688Z,18.70
2023-02-08T17:09:39.169Z,18.25
2023-02-08T17:12:21.518Z,18.33
2023-02-08T17:14:49.507Z,17.77
2023-02-08T17:17:16.436Z,18.33
2023-02-08T17:19:44.521Z,18.25
2023-02-08T17:22:11.403Z,18.85
2023-02-08T17:24:39.322Z,19.05
2023-02-08T17:27:06.581Z,19.10
2023-02-08T17:29:33.530Z,18.83
2023-02-08T17:32:00.619Z,19.88
2023-02-08T17:34:27.780Z,19.90
2023-02-08T17:36:54.652Z,19.48
2023-02-08T17:39:21.628Z,19.30
2023-02-08T17:41:48.916Z,20.88
2023-02-08T17:44:16.122Z,20.98
2023-02-08T17:46:42.968Z,19.98
2023-02-08T17:49:10.200Z,19.95
2023-02-08T17:51:37.422Z,22.05
2023-02-08T17:54:05.376Z,22.55
2023-02-08T17:56:35.448Z,22.75
2023-02-08T17:59:05.456Z,23.02
2023-02-08T18:01:33.025Z,22.17
2023-02-08T18:04:00.857Z,20.70
2023-02-08T18:06:28.891Z,24.25
2023-02-08T18:08:55.915Z,22.00
2023-02-08T18:11:24.013Z,22.02
2023-02-08T18:13:52.965Z,22.38
2023-02-08T18:16:23.587Z,23.00
2023-02-08T18:18:50.615Z,25.08
2023-02-08T18:21:25.485Z,23.92
2023-02-08T18:23:52.785Z,23.67
2023-02-08T18:26:24.261Z,24.40
2023-02-08T18:28:52.253Z,23.75
2023-02-08T18:31:21.242Z,23.95
2023-02-08T18:33:49.737Z,25.02
2023-02-08T18:36:17.053Z,25.15
2023-02-08T18:38:46.491Z,26.45
2023-02-08T18:41:16.394Z,26.85
2023-02-08T18:43:43.452Z,26.17
2023-02-08T18:46:12.701Z,25.38
2023-02-08T18:48:40.643Z,25.27
2023-02-08T18:51:12.046Z,25.85
2023-02-08T18:53:41.033Z,24.35
2023-02-08T18:56:10.984Z,24.90
2023-02-08T18:58:38.318Z,25.50
2023-02-08T19:01:16.134Z,25.67
2023-02-08T19:03:43.771Z,28.88
2023-02-08T19:06:18.243Z,29.52
2023-02-08T19:08:45.888Z,26.80
2023-02-08T19:11:21.089Z,27.73
2023-02-08T19:13:49.224Z,25.42
2023-02-08T19:16:22.493Z,27.20
2023-02-08T19:18:49.773Z,25.20
2023-02-08T19:21:17.713Z,25.83
2023-02-08T19:23:51.849Z,26.85
2023-02-08T19:26:20.223Z,26.02
2023-02-08T19:28:47.143Z,27.15
2023-02-08T19:31:17.095Z,24.15
2023-02-08T19:33:46.132Z,27.13
2023-02-08T19:36:16.899Z,26.23
2023-02-08T19:38:44.009Z,26.23
2023-02-08T19:41:37.114Z,24.40
2023-02-08T19:44:06.142Z,25.90
2023-02-08T19:46:35.227Z,28.85
2023-02-08T19:49:02.268Z,25.83
2023-02-08T19:51:32.201Z,24.70
2023-02-08T19:54:00.895Z,33.85
2023-02-08T19:56:34.144Z,33.13
2023-02-08T19:59:05.152Z,32.05
2023-02-08T20:01:33.594Z,27.65
2023-02-08T20:04:01.675Z,26.63
2023-02-08T20:06:33.296Z,23.92
2023-02-08T20:09:01.841Z,24.27
2023-02-08T20:11:31.661Z,25.17
2023-02-08T20:14:00.638Z,24.52
2023-02-08T20:16:31.704Z,26.60
2023-02-08T20:18:59.370Z,25.13
2023-02-08T20:21:26.372Z,26.23
2023-02-08T20:23:53.401Z,25.75
2023-02-08T20:26:23.454Z,25.58
2023-02-08T20:28:55.334Z,26.20
2023-02-08T20:31:28.538Z,24.98
2023-02-08T20:33:59.712Z,24.67
2023-02-08T20:36:38.568Z,26.10
2023-02-08T20:39:06.552Z,24.90
2023-02-08T20:41:34.434Z,25.83
2023-02-08T20:44:01.851Z,25.27
2023-02-08T20:46:31.400Z,25.67
2023-02-08T20:49:00.236Z,25.40
2023-02-08T20:51:28.323Z,23.80
2023-02-08T20:53:56.886Z,23.63
2023-02-08T20:56:27.137Z,24.75
2023-02-08T21:01:24.641Z,23.67
2023-02-08T21:03:56.312Z,23.88
2023-02-08T21:06:32.495Z,24.45
2023-02-08T21:09:03.833Z,23.35
2023-02-08T21:11:32.323Z,24.42
2023-02-08T21:14:01.285Z,24.90
2023-02-08T21:16:28.988Z,25.52
2023-02-08T21:18:57.247Z,23.58
2023-02-08T21:21:24.965Z,24.73
2023-02-08T21:23:52.035Z,24.50
2023-02-08T21:26:20.846Z,24.25
2023-02-08T21:28:48.398Z,25.30
2023-02-08T21:31:19.981Z,26.50
2023-02-08T21:33:46.958Z,25.48
2023-02-08T21:36:16.896Z,25.10
2023-02-08T21:38:44.194Z,23.23
2023-02-08T21:41:13.658Z,23.85
2023-02-08T21:43:40.851Z,22.23
2023-02-08T21:46:08.974Z,25.58
2023-02-08T21:48:55.976Z,23.67
2023-02-08T21:51:43.247Z,24.42
2023-02-08T21:54:31.560Z,22.73
2023-02-08T21:56:59.774Z,25.77
2023-02-08T21:59:27.465Z,23.20
2023-02-08T22:01:54.684Z,23.73
2023-02-08T22:04:22.010Z,23.15
2023-02-08T22:06:52.165Z,23.73
2023-02-08T22:11:50.349Z,22.90
2023-02-08T22:14:17.231Z,22.40
2023-02-08T22:16:44.142Z,21.33
2023-02-08T22:19:10.989Z,21.65
2023-02-08T22:21:38.324Z,23.52
2023-02-08T22:24:05.340Z,22.80
2023-02-08T22:26:32.568Z,22.75
2023-02-08T22:28:59.687Z,23.23
2023-02-08T22:31:26.821Z,23.25
2023-02-08T22:33:54.121Z,22.25
2023-02-08T22:36:21.470Z,21.80
2023-02-08T22:38:48.357Z,20.70
2023-02-08T22:41:17.250Z,19.80
2023-02-08T22:43:45.088Z,23.60
2023-02-08T22:46:12.944Z,20.63
2023-02-08T22:48:40.333Z,21.35
2023-02-08T22:51:09.504Z,21.10
2023-02-08T22:53:36.483Z,21.55
2023-02-08T22:56:03.712Z,21.13
2023-02-08T22:58:31.256Z,19.17
2023-02-08T23:00:58.193Z,18.45
2023-02-08T23:03:25.868Z,19.40
2023-02-08T23:05:53.244Z,19.10
2023-02-08T23:08:22.360Z,19.70
2023-02-08T23:10:49.613Z,19.02
2023-02-08T23:13:16.631Z,19.55
2023-02-08T23:15:44.977Z,19.38
2023-02-08T23:18:12.158Z,19.13
2023-02-08T23:20:42.098Z,18.98
2023-02-08T23:23:09.048Z,18.73
2023-02-08T23:25:39.830Z,20.48
2023-02-08T23:28:08.747Z,20.17
2023-02-08T23:30:38.012Z,19.73
2023-02-08T23:33:04.999Z,21.35
2023-02-08T23:35:31.824Z,21.65
2023-02-08T23:37:59.090Z,20.08
2023-02-08T23:40:26.018Z,18.65
2023-02-08T23:42:53.297Z,17.35
2023-02-08T23:45:20.277Z,17.13
2023-02-08T23:47:47.182Z,17.15
2023-02-08T23:50:14.208Z,17.25
2023-02-08T23:52:41.222Z,15.38
2023-02-08T23:55:08.303Z,16.48
2023-02-08T23:57:36.380Z,15.82
